Flight Track Log - Related Links

Times and Time Zones

All times are in EDT time to prevent confusion due to time zone crossing. See the EJA929 flight status page for this flight to view local times or setup timezone preferences in your user account.

Time Position Orientation Groundspeed Altitude Reporting Facility
EDT Latitude Longitude Course Direction KTS MPH feet Rate Location/Type
Thu 09:44:34 AM 34.7753 -92.3114 300° West 260 299 5,500  Level Memphis Center
Thu 09:46:43 AM 34.7300 -92.5228 255° West 302 348 43,000 11,905 Climbing Memphis Center
Thu 09:47:43 AM 34.7550 -92.6422 284° West 336 387 43,000  Level Memphis Center
Thu 09:48:43 AM 34.7925 -92.7569 292° West 341 392 43,000  Level Memphis Center
Thu 09:49:43 AM 34.8339 -92.8797 292° West 367 422 43,000  Level Memphis Center
Thu 09:50:42 AM 34.8708 -93.0047 290° West 386 444 43,000  Level Memphis Center
Thu 09:51:43 AM 34.9100 -93.1275 291° West 392 451 43,000  Level Memphis Center
Thu 09:52:42 AM 34.9467 -93.2528 290° West 392 451 43,000 -9,025 Level Memphis Center
Thu 09:53:42 AM 34.9875 -93.3783 292° West 397 457 25,100 -8,350 Descending Memphis Center
Thu 09:54:42 AM 35.0281 -93.5092 291° West 397 457 26,300 1,250 Climbing Memphis Center
Thu 09:55:42 AM 35.0706 -93.6428 291° West 397 457 27,600 1,300 Climbing Memphis Center
Thu 09:56:42 AM 35.1150 -93.7789 292° West 420 483 28,900 1,488 Climbing Memphis Center
Thu 09:57:43 AM 35.1508 -93.9100 289° West 420 483 30,600 1,835 Climbing Memphis Center
Thu 09:58:43 AM 35.1931 -94.0414 291° West 420 483 32,600 2,200 Climbing Memphis Center
Thu 09:59:43 AM 35.2331 -94.1650 292° West 409 471 35,000 2,118 Climbing Memphis Center
Thu 10:00:42 AM 35.2647 -94.2886 287° West 397 457 36,800 1,627 Climbing Memphis Center
Thu 10:02:29 AM 35.3208 -94.4736 290° West 375 432 39,500 1,473 Climbing Kansas City Center
Thu 10:03:29 AM 35.3650 -94.6172 291° West 373 429 40,900 1,113 Climbing Kansas City Center
Thu 10:04:33 AM 35.4011 -94.7406 290° West 380 437 41,800 919 Climbing Kansas City Center
Thu 10:05:33 AM 35.4378 -94.8656 290° West 386 444 42,800 581 Climbing Kansas City Center
Thu 10:06:37 AM 35.4778 -94.9986 290° West 395 455 43,000 97 Climbing Kansas City Center
Thu 10:07:37 AM 35.5161 -95.1278 290° West 409 471 43,000  Level Kansas City Center
Thu 10:08:40 AM 35.5569 -95.2678 290° West 424 488 43,000  Level Kansas City Center
Thu 10:09:42 AM 35.5975 -95.4108 289° West 436 502 43,000  Level Kansas City Center
Thu 10:10:45 AM 35.6481 -95.5831 290° West 442 509 43,000  Level Kansas City Center
Thu 10:11:46 AM 35.6886 -95.7267 289° West 441 507 43,000  Level Kansas City Center
Thu 10:12:49 AM 35.7289 -95.8700 289° West 442 509 43,000  Level Kansas City Center
Thu 10:13:51 AM 35.7683 -96.0125 289° West 439 505 43,000  Level Kansas City Center
Thu 10:14:51 AM 35.8094 -96.1564 289° West 441 507 43,000  Level Kansas City Center
Thu 10:15:55 AM 35.8503 -96.3011 289° West 443 510 43,000  Level Kansas City Center
Thu 10:16:55 AM 35.8925 -96.4528 289° West 443 510 43,000  Level Kansas City Center
Thu 10:18:00 AM 35.9325 -96.5950 289° West 442 509 43,000  Level Kansas City Center
Thu 10:19:00 AM 35.9719 -96.7367 289° West 441 507 43,000  Level Kansas City Center
Thu 10:20:04 AM 36.0189 -96.9069 289° West 440 506 43,000  Level Kansas City Center
Thu 10:21:04 AM 36.0575 -97.0481 289° West 438 504 43,000  Level Kansas City Center
Thu 10:22:08 AM 36.0958 -97.1858 289° West 434 499 43,000  Level Kansas City Center
Thu 10:23:08 AM 36.1325 -97.3258 288° West 431 496 43,000  Level Kansas City Center
Thu 10:24:11 AM 36.1697 -97.4656 288° West 431 496 43,000  Level Kansas City Center
Thu 10:25:12 AM 36.2144 -97.6342 288° West 430 495 43,000  Level Kansas City Center
Thu 10:26:14 AM 36.2519 -97.7731 289° West 429 494 43,000  Level Kansas City Center
Thu 10:27:17 AM 36.2914 -97.9272 288° West 428 493 43,000  Level Kansas City Center
Thu 10:28:18 AM 36.3292 -98.0664 289° West 427 491 43,000  Level Kansas City Center
Thu 10:29:22 AM 36.3650 -98.2058 288° West 426 490 43,000  Level Kansas City Center
Thu 10:30:23 AM 36.4011 -98.3464 288° West 428 493 43,000  Level Kansas City Center
Thu 10:31:26 AM 36.4372 -98.4861 288° West 426 490 43,000  Level Kansas City Center
Thu 10:32:27 AM 36.4731 -98.6272 288° West 428 493 43,000  Level Kansas City Center
Thu 10:34:33 AM 36.5508 -98.9356 288° West 427 491 43,000  Level Kansas City Center
Thu 10:35:33 AM 36.5864 -99.0756 288° West 427 491 43,000  Level Kansas City Center
Thu 10:36:36 AM 36.6217 -99.2144 288° West 424 488 43,000  Level Kansas City Center
Thu 10:37:38 AM 36.6556 -99.3544 287° West 424 488 43,000  Level Kansas City Center
Thu 10:38:39 AM 36.6906 -99.4944 287° West 424 488 43,000  Level Kansas City Center
Thu 10:39:42 AM 36.7317 -99.6631 287° West 424 488 43,000  Level Kansas City Center
Thu 10:40:44 AM 36.7658 -99.8042 287° West 425 489 43,000  Level Kansas City Center
Thu 10:41:45 AM 36.8006 -99.9442 287° West 424 488 43,000  Level Kansas City Center
Thu 10:42:49 AM 36.8372 -100.0956 287° West 426 490 43,000  Level Kansas City Center
Thu 10:43:49 AM 36.8711 -100.2308 287° West 426 490 43,000  Level Kansas City Center
Thu 10:44:50 AM 36.9081 -100.3897 286° West 426 490 43,000  Level Kansas City Center
Thu 10:45:54 AM 36.9408 -100.5258 287° West 426 490 43,000  Level Kansas City Center
Thu 10:46:57 AM 36.9775 -100.6856 286° West 427 491 43,000  Level Kansas City Center
Thu 10:47:58 AM 37.0097 -100.8225 286° West 427 491 43,000  Level Kansas City Center
Thu 10:48:59 AM 37.0508 -100.9806 288° West 427 491 43,000  Level Kansas City Center
Thu 10:50:01 AM 37.1258 -101.0906 311° West 433 498 43,000  Level Kansas City Center
Thu 10:51:05 AM 37.2011 -101.2019 310° West 434 499 43,000  Level Kansas City Center
Thu 10:52:05 AM 37.2897 -101.3308 311° West 434 499 43,000  Level Kansas City Center
Thu 10:53:09 AM 37.3656 -101.4425 311° West 436 502 43,000  Level Kansas City Center
Thu 10:54:11 AM 37.4544 -101.5731 311° West 437 503 43,000  Level Kansas City Center
Thu 10:55:11 AM 37.5308 -101.6861 310° West 439 505 43,000  Level Kansas City Center
Thu 10:56:14 AM 37.6214 -101.8192 311° West 444 511 43,000  Level Kansas City Center
Thu 10:57:16 AM 37.6967 -101.9358 309° West 445 512 43,000  Level Kansas City Center
Thu 10:58:20 AM 37.7833 -102.0744 308° West 449 517 43,000  Level Kansas City Center
Thu 10:59:20 AM 37.8583 -102.1931 309° West 450 518 43,000 -233 Level Kansas City Center
Thu 11:00:29 AM 37.9467 -102.3319 309° West 452 520 42,500 -870 Descending Denver Center
Thu 11:01:31 AM 38.0328 -102.4686 309° West 443 510 41,100 -1,403 Descending Denver Center
Thu 11:02:33 AM 38.1039 -102.5831 308° West 431 496 39,600 -1,548 Descending Denver Center
Thu 11:03:35 AM 38.1872 -102.7153 309° West 430 495 37,900 -1,258 Descending Denver Center
Thu 11:04:37 AM 38.2589 -102.8353 307° West 444 511 37,000 -968 Descending Denver Center
Thu 11:05:39 AM 38.3131 -102.9997 293° West 454 522 35,900 -1,452 Descending Denver Center
Thu 11:06:41 AM 38.3583 -103.1461 292° West 463 533 34,000 -2,032 Descending Denver Center
Thu 11:07:43 AM 38.4092 -103.3189 291° West 467 537 31,700 -2,806 Descending Denver Center
Thu 11:08:45 AM 38.4681 -103.4564 299° West 472 543 28,200 -3,484 Descending Denver Center
Thu 11:09:47 AM 38.5706 -103.5742 318° Northwest 459 528 24,500 -3,629 Descending Denver Center
Thu 11:10:49 AM 38.6589 -103.6744 318° Northwest 446 513 20,700 -3,774 Descending Denver Center
Thu 11:11:51 AM 38.7561 -103.7844 319° Northwest 421 484 16,700 -2,226 Descending Denver Center
Thu 11:12:53 AM 38.8356 -103.8747 318° Northwest 402 463 16,100 -290 Descending Denver Center
Thu 11:13:55 AM 38.9267 -103.9775 319° Northwest 401 461 16,100 -48 Level Denver Center
Thu 11:14:57 AM 38.9928 -104.0539 318° Northwest 325 374 16,000 -48 Descending Denver Center
Thu 11:15:59 AM 39.0397 -104.1631 299° West 320 368 16,000  Level Denver Center
Thu 11:17:01 AM 39.0642 -104.2686 287° West 322 371 16,000 -432 Level Denver Center
Thu 11:18:04 AM 39.0911 -104.3911 286° West 320 368 15,100 -480 Descending Denver Center
Thu 11:19:06 AM 39.1147 -104.4950 286° West 305 351 15,000 -435 Descending Denver Center
Thu 11:20:08 AM 39.1383 -104.6008 286° West 308 354 14,200 -774 Descending Denver Center
Thu 11:21:10 AM 39.2167 -104.6789 322° Northwest 329 379 13,400 -532 Descending Denver Center
Thu 11:22:12 AM 39.3017 -104.7397 331° Northwest 347 399 13,100 -1,355 Descending Denver Center
Thu 11:23:14 AM 39.3839 -104.7886 335° Northwest 330 380 10,600 -2,032 Descending Denver Center
Thu 11:24:16 AM 39.4742 -104.7856 North 296 341 8,900 -1,210 Descending Denver Center
Thu 11:25:18 AM 39.5508 -104.7869 359° North 279 321 8,100 -387 Descending Denver Center
Thu 11:26:20 AM 39.6247 -104.7861 360° North 255 293 8,100 -242 Level Denver Center
Thu 11:27:22 AM 39.6808 -104.7958 352° North 219 252 7,600 -532 Descending Denver Center
Thu 11:28:24 AM 39.6658 -104.8514 251° West 164 189 7,000 -484 Descending Denver Center
Thu 11:29:26 AM 39.6225 -104.8533 182° South 155 178 6,600 -581 Descending Denver Center
Thu 11:30:28 AM 39.5806 -104.8519 179° South 150 173 5,800 -774 Descending Denver Center

Login

Don't have an account? Register now (free) for customized features, flight alerts, and more!